Terminal Aerodrome Forecast
Issued by NWS

Home | Current Version | Previous Version | Text Only | Print | Product List | Glossary On
Versions: 1 2 3 4 5 6 7 8 9 10 11 12 13 14 15 16 17 18 19 20 21 22 23 24 25 26 27 28 29 30
000
FTPA31 PHFO 262300 RRA
TAFLIH
TAF
PHLI 262341Z 2700/2724 12008KT P6SM FEW030 BKN045
     FM270500 32007KT P6SM SCT035
     FM272100 02012KT P6SM FEW030 SCT045=

USA.gov is the U.S. government's official web portal to all federal, state and local government web resources and services.